SGEN/ENO METAR and TAF weather

Enter ICAO airport designator
Station Type Date Time Source
SGEN METAR 2019/06/18 15:00 UTC NOAA

SGEN 181500Z 05008KT CAVOK 24/17 Q1016


Station Type Date Time Source
SGEN Decoded METAR 2019/06/18 15:00 UTC NOAA

Encarnacion, Paraguay (SGEN) 27-19S 055-50W 91M
Jun 18, 2019 - 11:00 AM EDT / 2019.06.18 1500 UTC
Wind: from the NE (050 degrees) at 9 MPH (8 KT):0
Visibility: greater than 7 mile(s):0
Temperature: 75 F (24 C)
Dew Point: 62 F (17 C)
Relative Humidity: 64%
Pressure (altimeter): 30.00 in. Hg (1016 hPa)
ob: SGEN 181500Z 05008KT CAVOK 24/17 Q1016
cycle: 15

Station Type Date Time Source
SGEN TAF 2019/06/18 12:00 UTC NOAA

TAF SGEN 181052Z 1812/1912 09004KT CAVOK TX23/1819Z TN13/1909Z
BECMG 1813/1816 VRB03KT 9999 BKN027
BECMG 1817/1820 24008KT 8000 RADZ BKN017 PROB40 1900/1902 6000 -TSRA OVC010
BECMG 1904/1907 18010KT 7000 RADZ OVC010

Example: see airport list